Time;durP1;ratioP1;P1;durP2;ratioP2;P2;SDS_P1;SDS_P2;PMS_P1;PMS_P2;Temp;Humidity;BMP_temperature;BMP_pressure;BME280_temperature;BME280_humidity;BME280_pressure;Samples;Min_cycle;Max_cycle;Signal;HPM_P1;HPM_P2
2021/08/04 00:00:09;;;;;;;;;;;18.10;99.90;18.00;99382.00;;;;337223;28;95807;-91
2021/08/04 00:00:20;;;;;;;;;;;18.10;99.90;18.00;99375.00;;;;342068;28;83408;-90
2021/08/04 00:00:33;;;;;;;;;;;18.10;99.90;18.00;99378.00;;;;344069;28;95503;-90
2021/08/04 00:00:45;;;;;;;;;;;18.10;99.90;18.00;99377.00;;;;341976;28;83535;-90
2021/08/04 00:00:57;;;;;;;;;;;18.10;99.90;18.10;99381.00;;;;339988;28;96477;-91
2021/08/04 00:01:09;;;;;;;;;;;18.10;99.90;18.10;99377.00;;;;344697;28;82548;-91
2021/08/04 00:01:21;;;;;;;;;;;18.10;99.90;18.10;99375.00;;;;341098;28;96356;-90
2021/08/04 00:01:33;;;;;;;;;;;18.10;99.90;18.20;99376.00;;;;343174;28;83552;-90
2021/08/04 00:01:45;;;;;;;;;;;18.10;99.90;18.20;99375.00;;;;341124;28;97841;-91
2021/08/04 00:01:57;;;;;;;;;;;18.10;99.90;18.10;99373.00;;;;341979;28;82657;-90
2021/08/04 00:02:09;;;;;;;;;;;18.10;99.90;18.10;99373.00;;;;339888;28;96486;-90
2021/08/04 00:02:21;;;;;;;;;;;18.10;99.90;18.10;99377.00;;;;340704;28;82412;-91
2021/08/04 00:02:33;;;;;;;;;;;18.10;99.90;18.10;99377.00;;;;341290;28;95365;-92
2021/08/04 00:02:45;;;;;;;;;;;18.10;99.90;18.10;99383.00;;;;341686;28;83456;-90
2021/08/04 00:02:57;;;;;;;;;;;18.10;99.90;18.10;99380.00;;;;339952;28;96168;-90
2021/08/04 00:03:09;;;;;;;;;;;18.10;99.90;18.10;99378.00;;;;342026;28;83486;-90
2021/08/04 00:03:21;;;;;;;;;;;18.10;99.90;18.10;99373.00;;;;342581;28;96228;-91
2021/08/04 00:03:33;;;;;;;;;;;18.10;99.90;18.10;99369.00;;;;342070;28;82501;-90
2021/08/04 00:03:45;;;;;;;;;;;18.10;99.90;18.10;99382.00;;;;342575;28;96758;-89
2021/08/04 00:04:06;;;;;;;;;;;18.10;99.90;18.10;99375.00;;;;341974;28;83594;-91
2021/08/04 00:04:19;;;;;;;;;;;18.00;99.90;18.00;99370.00;;;;343260;28;95829;-91
2021/08/04 00:04:31;;;;;;;;;;;18.10;99.90;18.00;99365.00;;;;343246;28;83511;-89
2021/08/04 00:04:43;;;;;;;;;;;18.10;99.90;18.00;99370.00;;;;339794;28;97142;-90
2021/08/04 00:04:54;;;;;;;;;;;18.10;99.90;18.00;99368.00;;;;343368;28;83262;-90
2021/08/04 00:05:07;;;;;;;;;;;18.10;99.90;18.00;99369.00;;;;339912;28;95488;-91
2021/08/04 00:05:19;;;;;;;;;;;18.10;99.90;18.00;99376.00;;;;339700;28;83585;-90
2021/08/04 00:05:31;;;;;;;;;;;18.10;99.90;18.10;99370.00;;;;339949;28;96280;-90
2021/08/04 00:05:42;;;;;;;;;;;18.10;99.90;18.10;99370.00;;;;340759;28;83399;-91
2021/08/04 00:05:54;;;;;;;;;;;18.10;99.90;18.10;99369.00;;;;341197;28;96247;-90
2021/08/04 00:06:06;;;;;;;;;;;18.10;99.90;18.10;99369.00;;;;341880;28;83488;-90
2021/08/04 00:06:18;;;;;;;;;;;18.10;99.90;18.10;99361.00;;;;341286;28;96661;-90
2021/08/04 00:06:30;;;;;;;;;;;18.10;99.90;18.10;99361.00;;;;340728;28;82548;-90
2021/08/04 00:06:41;;;;;;;;;;;18.10;99.90;18.10;99369.00;;;;339834;28;97159;-90
2021/08/04 00:06:53;;;;;;;;;;;18.10;99.90;18.00;99365.00;;;;340691;28;83361;-90
2021/08/04 00:07:06;;;;;;;;;;;18.10;99.90;18.20;99365.00;;;;342641;28;95392;-91
2021/08/04 00:07:18;;;;;;;;;;;18.10;99.90;18.20;99363.00;;;;342898;28;83578;-90
2021/08/04 00:07:30;;;;;;;;;;;18.10;99.90;18.30;99363.00;;;;338570;28;96486;-90
2021/08/04 00:07:42;;;;;;;;;;;18.10;99.90;18.30;99359.00;;;;340666;28;82623;-90
2021/08/04 00:07:53;;;;;;;;;;;18.10;99.90;18.30;99360.00;;;;339814;28;96561;-90
2021/08/04 00:08:05;;;;;;;;;;;18.10;99.90;18.30;99353.00;;;;341985;28;82567;-91
2021/08/04 00:08:17;;;;;;;;;;;18.10;99.90;18.40;99363.00;;;;341153;28;95370;-90
2021/08/04 00:08:29;;;;;;;;;;;18.10;99.90;18.50;99358.00;;;;339348;28;83387;-90
2021/08/04 00:08:41;;;;;;;;;;;18.10;99.90;18.40;99372.00;;;;339531;28;95496;-90
2021/08/04 00:08:52;;;;;;;;;;;18.10;99.90;18.40;99358.00;;;;340768;28;83303;-90
2021/08/04 00:09:04;;;;;;;;;;;18.10;99.90;18.30;99356.00;;;;339890;28;96508;-90
2021/08/04 00:09:16;;;;;;;;;;;18.10;99.90;18.40;99356.00;;;;343216;28;83539;-91
2021/08/04 00:09:29;;;;;;;;;;;18.10;99.90;18.30;99359.00;;;;341247;28;96007;-91
2021/08/04 00:09:40;;;;;;;;;;;18.10;99.90;18.40;99363.00;;;;340702;28;83483;-89
2021/08/04 00:09:52;;;;;;;;;;;18.20;99.90;18.30;99358.00;;;;341271;28;96304;-91
2021/08/04 00:10:05;;;;;;;;;;;18.10;99.90;18.40;99357.00;;;;343439;28;82473;-90
2021/08/04 00:10:17;;;;;;;;;;;18.20;99.90;18.40;99356.00;;;;340453;28;96538;-91
2021/08/04 00:10:29;;;;;;;;;;;18.10;99.90;18.40;99358.00;;;;339189;28;83462;-90
2021/08/04 00:10:41;;;;;;;;;;;18.20;99.90;18.40;99359.00;;;;337129;28;96698;-90
2021/08/04 00:10:52;;;;;;;;;;;18.20;99.90;18.40;99358.00;;;;340746;28;83399;-90
2021/08/04 00:11:04;;;;;;;;;;;18.20;99.90;18.30;99352.00;;;;339951;28;95904;-90
2021/08/04 00:11:16;;;;;;;;;;;18.20;99.90;18.40;99356.00;;;;339265;28;83387;-90
2021/08/04 00:11:28;;;;;;;;;;;18.20;99.90;18.50;99355.00;;;;341277;28;96760;-91
2021/08/04 00:11:39;;;;;;;;;;;18.20;99.90;18.50;99350.00;;;;342038;28;83413;-90
2021/08/04 00:11:51;;;;;;;;;;;18.20;99.90;18.50;99355.00;;;;341157;28;97563;-90
2021/08/04 00:12:03;;;;;;;;;;;18.20;99.90;18.40;99348.00;;;;339230;28;82512;-90
2021/08/04 00:12:15;;;;;;;;;;;18.20;99.90;18.40;99354.00;;;;339862;28;97000;-90
2021/08/04 00:12:27;;;;;;;;;;;18.20;99.90;18.30;99357.00;;;;341997;28;83416;-89
2021/08/04 00:12:39;;;;;;;;;;;18.20;99.90;18.20;99359.00;;;;341297;28;95974;-90
2021/08/04 00:12:51;;;;;;;;;;;18.20;99.90;18.30;99349.00;;;;339219;28;82573;-90
2021/08/04 00:13:03;;;;;;;;;;;18.20;99.90;18.30;99347.00;;;;337370;28;94235;-90
2021/08/04 00:13:15;;;;;;;;;;;18.20;99.90;18.30;99352.00;;;;341062;28;83636;-90
2021/08/04 00:13:27;;;;;;;;;;;18.20;99.90;18.40;99357.00;;;;341144;28;95933;-90
2021/08/04 00:13:38;;;;;;;;;;;18.20;99.90;18.30;99356.00;;;;340753;28;82483;-90
2021/08/04 00:13:50;;;;;;;;;;;18.20;99.90;18.30;99358.00;;;;341178;28;97920;-90
2021/08/04 00:14:02;;;;;;;;;;;18.20;99.90;18.40;99356.00;;;;340532;28;83631;-90
2021/08/04 00:14:14;;;;;;;;;;;18.20;99.90;18.50;99355.00;;;;338474;28;97165;-90
2021/08/04 00:14:26;;;;;;;;;;;18.20;99.90;18.30;99350.00;;;;340691;28;83315;-90
2021/08/04 00:14:38;;;;;;;;;;;18.20;99.90;18.20;99358.00;;;;341162;28;96053;-90
2021/08/04 00:14:50;;;;;;;;;;;18.20;99.90;18.20;99351.00;;;;342015;28;83386;-90
2021/08/04 00:15:03;;;;;;;;;;;18.20;99.90;18.30;99353.00;;;;338621;28;95703;-90
2021/08/04 00:15:16;;;;;;;;;;;18.20;99.90;18.10;99350.00;;;;340579;28;83442;-90
2021/08/04 00:15:27;;;;;;;;;;;18.20;99.90;18.10;99350.00;;;;341145;28;95871;-90
2021/08/04 00:15:39;;;;;;;;;;;18.20;99.90;18.10;99350.00;;;;342031;28;83420;-90
2021/08/04 00:15:51;;;;;;;;;;;18.20;99.90;18.00;99355.00;;;;341299;28;97956;-90
2021/08/04 00:16:03;;;;;;;;;;;18.10;99.90;18.00;99352.00;;;;339338;28;83449;-89
2021/08/04 00:16:15;;;;;;;;;;;18.10;99.90;18.10;99347.00;;;;339874;28;95870;-90
2021/08/04 00:16:27;;;;;;;;;;;18.10;99.90;18.10;99340.00;;;;341900;28;83443;-90
2021/08/04 00:16:39;;;;;;;;;;;18.10;99.90;18.10;99354.00;;;;342579;28;95699;-91
2021/08/04 00:16:51;;;;;;;;;;;18.10;99.90;18.30;99352.00;;;;340679;28;83401;-90
2021/08/04 00:17:03;;;;;;;;;;;18.10;99.90;18.30;99355.00;;;;339945;28;96318;-90
2021/08/04 00:17:16;;;;;;;;;;;18.10;99.90;18.20;99349.00;;;;339545;28;83364;-90
2021/08/04 00:17:28;;;;;;;;;;;18.10;99.90;18.20;99348.00;;;;341005;28;95623;-89
2021/08/04 00:17:40;;;;;;;;;;;18.10;99.90;18.20;99355.00;;;;339444;28;82556;-90
2021/08/04 00:17:52;;;;;;;;;;;18.10;99.90;18.10;99350.00;;;;338538;28;97332;-90
2021/08/04 00:18:04;;;;;;;;;;;18.10;99.90;18.00;99341.00;;;;340573;28;83458;-90
2021/08/04 00:18:15;;;;;;;;;;;18.10;99.90;18.10;99344.00;;;;342568;28;95823;-90
2021/08/04 00:18:27;;;;;;;;;;;18.10;99.90;18.10;99337.00;;;;339316;28;82502;-90
2021/08/04 00:18:39;;;;;;;;;;;18.10;99.90;18.00;99350.00;;;;341227;28;96779;-90
2021/08/04 00:18:51;;;;;;;;;;;18.10;99.90;18.00;99346.00;;;;342031;28;83424;-90
2021/08/04 00:19:03;;;;;;;;;;;18.00;99.90;18.20;99354.00;;;;342597;28;95916;-90
2021/08/04 00:19:14;;;;;;;;;;;18.10;99.90;18.10;99349.00;;;;338894;28;83613;-89
2021/08/04 00:19:26;;;;;;;;;;;18.00;99.90;18.10;99354.00;;;;338526;28;96449;-90
2021/08/04 00:19:38;;;;;;;;;;;18.00;99.90;18.10;99349.00;;;;340729;28;83454;-90
2021/08/04 00:19:50;;;;;;;;;;;18.00;99.90;18.00;99343.00;;;;341247;28;97388;-90
2021/08/04 00:20:03;;;;;;;;;;;18.00;99.90;18.00;99348.00;;;;342007;28;82653;-89
2021/08/04 00:20:15;;;;;;;;;;;18.00;99.90;18.00;99341.00;;;;339349;28;96652;-90
2021/08/04 00:20:27;;;;;;;;;;;18.00;99.90;18.00;99342.00;;;;339331;28;83500;-90
2021/08/04 00:20:38;;;;;;;;;;;18.00;99.90;18.00;99344.00;;;;339953;28;96652;-90
2021/08/04 00:20:50;;;;;;;;;;;18.00;99.90;18.10;99346.00;;;;340710;28;83518;-90
2021/08/04 00:21:02;;;;;;;;;;;18.00;99.90;18.10;99343.00;;;;339932;28;95446;-89
2021/08/04 00:21:14;;;;;;;;;;;18.00;99.90;18.10;99349.00;;;;343333;28;83378;-90
2021/08/04 00:21:25;;;;;;;;;;;18.00;99.90;18.00;99342.00;;;;342271;28;96699;-90
2021/08/04 00:21:37;;;;;;;;;;;18.00;99.90;18.10;99341.00;;;;343336;28;83489;-89
2021/08/04 00:21:49;;;;;;;;;;;18.00;99.90;18.10;99345.00;;;;341193;28;96298;-90
2021/08/04 00:22:01;;;;;;;;;;;18.00;99.90;18.10;99350.00;;;;340637;28;84126;-90
2021/08/04 00:22:13;;;;;;;;;;;18.00;99.90;18.10;99345.00;;;;340892;28;97079;-90
2021/08/04 00:22:25;;;;;;;;;;;18.00;99.90;18.00;99346.00;;;;339075;28;83669;-90
2021/08/04 00:22:36;;;;;;;;;;;18.00;99.90;18.00;99346.00;;;;338646;28;95564;-90
2021/08/04 00:22:49;;;;;;;;;;;18.00;99.90;18.10;99350.00;;;;343438;28;82675;-90
2021/08/04 00:23:01;;;;;;;;;;;18.00;99.90;18.10;99346.00;;;;338618;28;97175;-90
2021/08/04 00:23:13;;;;;;;;;;;18.00;99.90;18.00;99339.00;;;;340563;28;83017;-90
2021/08/04 00:23:25;;;;;;;;;;;18.00;99.90;18.00;99351.00;;;;339929;28;97029;-90
2021/08/04 00:23:37;;;;;;;;;;;18.00;99.90;18.10;99345.00;;;;339301;28;83384;-91
2021/08/04 00:23:49;;;;;;;;;;;18.00;99.90;18.20;99351.00;;;;341054;28;97708;-90
2021/08/04 00:24:00;;;;;;;;;;;18.00;99.90;18.20;99345.00;;;;341965;28;83573;-90
2021/08/04 00:24:12;;;;;;;;;;;18.00;99.90;18.10;99342.00;;;;338591;28;96668;-90
2021/08/04 00:24:24;;;;;;;;;;;18.00;99.90;18.00;99342.00;;;;342001;28;83401;-90
2021/08/04 00:24:36;;;;;;;;;;;18.00;99.90;18.10;99345.00;;;;339751;28;96331;-90
2021/08/04 00:24:48;;;;;;;;;;;18.00;99.90;18.20;99338.00;;;;339317;28;83532;-90
2021/08/04 00:24:59;;;;;;;;;;;18.00;99.90;18.20;99350.00;;;;338618;28;96292;-90
2021/08/04 00:25:11;;;;;;;;;;;18.00;99.90;18.10;99346.00;;;;342071;28;82493;-90
2021/08/04 00:25:23;;;;;;;;;;;18.00;99.90;18.10;99344.00;;;;341196;28;96324;-90
2021/08/04 00:25:35;;;;;;;;;;;18.00;99.90;18.00;99343.00;;;;339350;28;83376;-90
2021/08/04 00:25:47;;;;;;;;;;;18.00;99.90;18.10;99341.00;;;;338451;28;97462;-90
2021/08/04 00:25:59;;;;;;;;;;;18.00;99.90;18.00;99343.00;;;;339271;28;83460;-90
2021/08/04 00:26:11;;;;;;;;;;;18.00;99.90;18.00;99348.00;;;;341067;28;97116;-90
2021/08/04 00:26:23;;;;;;;;;;;18.00;99.90;18.00;99344.00;;;;341978;28;82302;-90
2021/08/04 00:26:34;;;;;;;;;;;18.00;99.90;17.90;99338.00;;;;341222;28;95474;-90
2021/08/04 00:26:46;;;;;;;;;;;18.00;99.90;17.90;99343.00;;;;340760;28;82524;-90
2021/08/04 00:26:58;;;;;;;;;;;18.00;99.90;17.90;99345.00;;;;341245;28;95791;-89
2021/08/04 00:27:10;;;;;;;;;;;18.00;99.90;18.00;99343.00;;;;342019;28;83405;-89
2021/08/04 00:27:24;;;;;;;;;;;18.00;99.90;18.00;99335.00;;;;340989;28;95864;-90
2021/08/04 00:27:36;;;;;;;;;;;18.00;99.90;17.90;99344.00;;;;343357;28;83371;-90
2021/08/04 00:27:47;;;;;;;;;;;18.00;99.90;17.90;99342.00;;;;341231;28;96547;-90
2021/08/04 00:28:00;;;;;;;;;;;18.00;99.90;17.90;99344.00;;;;340694;28;83450;-90
2021/08/04 00:28:12;;;;;;;;;;;18.00;99.90;17.90;99337.00;;;;340850;28;96281;-90
2021/08/04 00:28:23;;;;;;;;;;;18.00;99.90;18.00;99340.00;;;;344615;28;83402;-90
2021/08/04 00:28:35;;;;;;;;;;;18.00;99.90;17.90;99344.00;;;;339938;28;96432;-91
2021/08/04 00:28:47;;;;;;;;;;;17.90;99.90;18.00;99348.00;;;;339216;28;83589;-89
2021/08/04 00:28:59;;;;;;;;;;;17.90;99.90;18.00;99343.00;;;;339922;28;96634;-90
2021/08/04 00:29:11;;;;;;;;;;;17.90;99.90;18.00;99348.00;;;;343173;28;83598;-90
2021/08/04 00:29:22;;;;;;;;;;;17.90;99.90;17.90;99344.00;;;;339764;28;97060;-90
2021/08/04 00:29:34;;;;;;;;;;;17.90;99.90;17.90;99344.00;;;;340633;28;82532;-90
2021/08/04 00:29:46;;;;;;;;;;;17.90;99.90;17.90;99346.00;;;;341224;28;96909;-90
2021/08/04 00:29:58;;;;;;;;;;;17.90;99.90;17.80;99347.00;;;;340601;28;83423;-90
2021/08/04 00:30:10;;;;;;;;;;;17.90;99.90;17.80;99343.00;;;;339904;28;96564;-90
2021/08/04 00:30:21;;;;;;;;;;;17.90;99.90;17.80;99340.00;;;;340547;28;83550;-89
2021/08/04 00:30:33;;;;;;;;;;;17.90;99.90;17.70;99344.00;;;;338774;28;95294;-90
2021/08/04 00:30:45;;;;;;;;;;;17.80;99.90;17.70;99349.00;;;;343395;28;82508;-90
2021/08/04 00:30:57;;;;;;;;;;;17.80;99.90;17.70;99348.00;;;;341226;28;96672;-90
2021/08/04 00:31:09;;;;;;;;;;;17.80;99.90;17.70;99345.00;;;;341825;28;82472;-91
2021/08/04 00:31:21;;;;;;;;;;;17.80;99.90;17.80;99339.00;;;;340720;28;96995;-89
2021/08/04 00:31:32;;;;;;;;;;;17.80;99.90;17.80;99340.00;;;;342044;28;83272;-89
2021/08/04 00:31:44;;;;;;;;;;;17.80;99.90;17.90;99340.00;;;;343788;28;96352;-90
2021/08/04 00:31:56;;;;;;;;;;;17.80;99.90;17.90;99338.00;;;;343380;28;83118;-89
2021/08/04 00:32:08;;;;;;;;;;;17.80;99.90;17.90;99339.00;;;;341279;28;95518;-91
2021/08/04 00:32:20;;;;;;;;;;;17.80;99.90;17.90;99340.00;;;;343054;28;83458;-90
2021/08/04 00:32:32;;;;;;;;;;;17.80;99.90;17.90;99347.00;;;;341221;28;97010;-90
2021/08/04 00:32:44;;;;;;;;;;;17.80;99.90;17.90;99334.00;;;;342003;28;82588;-89
2021/08/04 00:32:56;;;;;;;;;;;17.80;99.90;17.90;99340.00;;;;342605;28;95214;-89
2021/08/04 00:33:08;;;;;;;;;;;17.80;99.90;17.90;99337.00;;;;342159;28;82401;-89
2021/08/04 00:33:20;;;;;;;;;;;17.80;99.90;17.90;99340.00;;;;343886;28;96660;-91
2021/08/04 00:33:31;;;;;;;;;;;17.80;99.90;17.80;99341.00;;;;341974;28;82510;-90
2021/08/04 00:33:43;;;;;;;;;;;17.80;99.90;17.80;99347.00;;;;341123;28;96823;-90
2021/08/04 00:33:55;;;;;;;;;;;17.80;99.90;17.80;99337.00;;;;340702;28;82458;-90
2021/08/04 00:34:07;;;;;;;;;;;17.80;99.90;17.80;99334.00;;;;341231;28;95964;-90
2021/08/04 00:34:19;;;;;;;;;;;17.80;99.90;17.90;99340.00;;;;341827;28;82630;-90
2021/08/04 00:34:30;;;;;;;;;;;17.80;99.90;17.90;99332.00;;;;341050;28;96393;-90
2021/08/04 00:34:42;;;;;;;;;;;17.80;99.90;17.90;99333.00;;;;341910;28;82527;-90
2021/08/04 00:34:54;;;;;;;;;;;17.80;99.90;18.00;99334.00;;;;339933;28;95991;-90
2021/08/04 00:35:06;;;;;;;;;;;17.80;99.90;18.00;99340.00;;;;340307;28;83427;-91
2021/08/04 00:35:18;;;;;;;;;;;17.80;99.90;18.10;99326.00;;;;340229;28;96671;-91
2021/08/04 00:35:30;;;;;;;;;;;17.80;99.90;18.10;99334.00;;;;341945;28;82541;-90
2021/08/04 00:35:41;;;;;;;;;;;17.80;99.90;18.00;99333.00;;;;338562;28;93956;-90
2021/08/04 00:35:53;;;;;;;;;;;17.80;99.90;18.10;99334.00;;;;340744;28;83457;-90
2021/08/04 00:36:05;;;;;;;;;;;17.80;99.90;18.00;99333.00;;;;339950;28;92805;-89
2021/08/04 00:36:17;;;;;;;;;;;17.80;99.90;18.00;99334.00;;;;340744;28;82508;-90
2021/08/04 00:36:29;;;;;;;;;;;17.80;99.90;18.00;99330.00;;;;339893;28;96615;-90
2021/08/04 00:36:40;;;;;;;;;;;17.80;99.90;18.00;99337.00;;;;340624;28;82569;-89
2021/08/04 00:36:52;;;;;;;;;;;17.80;99.90;18.00;99333.00;;;;339939;28;95445;-90
2021/08/04 00:37:04;;;;;;;;;;;17.80;99.90;18.00;99328.00;;;;342017;28;82499;-90
2021/08/04 00:37:16;;;;;;;;;;;17.80;99.90;18.00;99332.00;;;;341520;28;95550;-90
2021/08/04 00:37:28;;;;;;;;;;;17.80;99.90;18.10;99328.00;;;;342513;28;83562;-90
2021/08/04 00:37:40;;;;;;;;;;;17.80;99.90;18.10;99331.00;;;;341177;28;95806;-89
2021/08/04 00:37:52;;;;;;;;;;;17.80;99.90;18.00;99333.00;;;;339383;28;82543;-90
2021/08/04 00:38:09;;;;;;;;;;;17.80;99.90;17.90;99335.00;;;;338586;28;96545;-89
2021/08/04 00:38:21;;;;;;;;;;;17.80;99.90;18.00;99332.00;;;;340559;28;83539;-90
2021/08/04 00:38:33;;;;;;;;;;;17.90;99.90;18.00;99336.00;;;;338493;28;95266;-90
2021/08/04 00:38:45;;;;;;;;;;;17.80;99.90;17.90;99335.00;;;;339284;28;83593;-90
2021/08/04 00:38:58;;;;;;;;;;;17.80;99.90;17.90;99328.00;;;;341079;28;95641;-89
2021/08/04 00:39:09;;;;;;;;;;;17.80;99.90;18.00;99329.00;;;;340699;28;82498;-89
2021/08/04 00:39:21;;;;;;;;;;;17.80;99.90;18.00;99318.00;;;;341200;28;96249;-90
2021/08/04 00:39:33;;;;;;;;;;;17.80;99.90;18.10;99333.00;;;;343204;28;83590;-90
2021/08/04 00:39:45;;;;;;;;;;;17.80;99.90;18.10;99331.00;;;;342568;28;97387;-90
2021/08/04 00:39:57;;;;;;;;;;;17.80;99.90;18.10;99330.00;;;;341960;28;83238;-89
2021/08/04 00:40:09;;;;;;;;;;;17.90;99.90;18.10;99328.00;;;;339619;28;96609;-90
2021/08/04 00:40:21;;;;;;;;;;;17.90;99.90;18.00;99325.00;;;;343026;28;83516;-90
2021/08/04 00:40:33;;;;;;;;;;;17.90;99.90;18.00;99331.00;;;;342234;28;96509;-91
2021/08/04 00:40:45;;;;;;;;;;;17.90;99.90;18.00;99331.00;;;;343287;28;82665;-89
2021/08/04 00:40:56;;;;;;;;;;;17.90;99.90;17.90;99324.00;;;;339897;28;96302;-89
2021/08/04 00:41:08;;;;;;;;;;;17.90;99.90;17.90;99328.00;;;;341962;28;83438;-90
2021/08/04 00:41:20;;;;;;;;;;;17.90;99.90;17.90;99329.00;;;;340966;28;96521;-90
2021/08/04 00:41:41;;;;;;;;;;;17.90;99.90;17.80;99328.00;;;;340627;28;84297;-89
2021/08/04 00:41:53;;;;;;;;;;;17.80;99.90;18.00;99332.00;;;;341102;28;96386;-90
2021/08/04 00:42:05;;;;;;;;;;;17.80;99.90;18.10;99331.00;;;;340676;28;83399;-89
2021/08/04 00:42:18;;;;;;;;;;;17.90;99.90;18.10;99336.00;;;;340017;28;95527;-89
2021/08/04 00:42:30;;;;;;;;;;;17.90;99.90;18.10;99326.00;;;;342910;28;84173;-91
2021/08/04 00:42:42;;;;;;;;;;;17.90;99.90;18.20;99331.00;;;;341010;28;97083;-90
2021/08/04 00:42:57;;;;;;;;;;;17.90;99.90;18.20;99332.00;;;;339363;28;83387;-89
2021/08/04 00:43:09;;;;;;;;;;;17.90;99.90;18.20;99332.00;;;;342429;28;95598;-91
2021/08/04 00:43:20;;;;;;;;;;;17.90;99.90;18.20;99330.00;;;;341592;28;82636;-89
2021/08/04 00:43:32;;;;;;;;;;;17.90;99.90;18.20;99326.00;;;;342295;28;96521;-89
2021/08/04 00:43:44;;;;;;;;;;;17.90;99.90;18.20;99326.00;;;;343269;28;82533;-90
2021/08/04 00:43:56;;;;;;;;;;;17.90;99.90;18.10;99326.00;;;;339809;28;96237;-89
2021/08/04 00:44:07;;;;;;;;;;;17.90;99.90;18.10;99329.00;;;;340609;28;83483;-90
2021/08/04 00:44:19;;;;;;;;;;;17.90;99.90;18.00;99316.00;;;;341460;28;95398;-90
2021/08/04 00:44:31;;;;;;;;;;;17.90;99.90;18.10;99326.00;;;;340646;28;82481;-89
2021/08/04 00:44:43;;;;;;;;;;;17.90;99.90;18.10;99324.00;;;;338465;28;96632;-89
2021/08/04 00:44:55;;;;;;;;;;;17.90;99.90;18.00;99325.00;;;;340637;28;83505;-90
2021/08/04 00:45:08;;;;;;;;;;;17.90;99.90;18.00;99320.00;;;;339874;28;96735;-89
2021/08/04 00:45:19;;;;;;;;;;;17.90;99.90;18.00;99325.00;;;;343301;28;82547;-91
2021/08/04 00:45:31;;;;;;;;;;;17.90;99.90;18.20;99325.00;;;;339735;28;96550;-91
2021/08/04 00:45:43;;;;;;;;;;;17.90;99.90;18.20;99323.00;;;;341949;28;83373;-90
2021/08/04 00:45:55;;;;;;;;;;;17.90;99.90;18.20;99320.00;;;;339790;28;97146;-90
2021/08/04 00:46:07;;;;;;;;;;;18.00;99.90;18.00;99322.00;;;;340670;28;83447;-89
2021/08/04 00:46:19;;;;;;;;;;;17.90;99.90;18.10;99315.00;;;;343544;28;95667;-89
2021/08/04 00:46:31;;;;;;;;;;;17.90;99.90;18.10;99319.00;;;;341848;28;83506;-90
2021/08/04 00:46:44;;;;;;;;;;;18.00;99.90;18.00;99321.00;;;;341011;28;96613;-90
2021/08/04 00:46:56;;;;;;;;;;;17.90;99.90;18.00;99320.00;;;;340693;28;83344;-90
2021/08/04 00:47:07;;;;;;;;;;;18.00;99.90;18.00;99317.00;;;;342727;28;94062;-89
2021/08/04 00:47:19;;;;;;;;;;;18.00;99.90;17.90;99321.00;;;;343259;28;82414;-89
2021/08/04 00:47:31;;;;;;;;;;;18.00;99.90;17.90;99320.00;;;;341261;28;95418;-89
2021/08/04 00:47:43;;;;;;;;;;;17.90;99.90;18.00;99315.00;;;;341991;28;83547;-90
2021/08/04 00:47:55;;;;;;;;;;;18.00;99.90;18.10;99317.00;;;;341141;28;93948;-90
2021/08/04 00:48:07;;;;;;;;;;;17.90;99.90;18.00;99314.00;;;;340576;28;83458;-90
2021/08/04 00:48:19;;;;;;;;;;;17.90;99.90;18.00;99316.00;;;;339740;28;95414;-90
2021/08/04 00:48:31;;;;;;;;;;;17.90;99.90;18.00;99314.00;;;;342033;28;83376;-90
2021/08/04 00:48:43;;;;;;;;;;;17.90;99.90;18.00;99312.00;;;;341065;28;97400;-91
2021/08/04 00:48:54;;;;;;;;;;;17.90;99.90;17.90;99317.00;;;;343357;28;83472;-90
2021/08/04 00:49:06;;;;;;;;;;;17.90;99.90;17.90;99317.00;;;;341184;28;96871;-89
2021/08/04 00:49:18;;;;;;;;;;;17.90;99.90;17.90;99310.00;;;;338726;28;82511;-89
2021/08/04 00:49:30;;;;;;;;;;;17.90;99.90;17.80;99320.00;;;;339656;28;96527;-89
2021/08/04 00:49:41;;;;;;;;;;;17.90;99.90;17.80;99306.00;;;;340553;28;82660;-90
2021/08/04 00:49:53;;;;;;;;;;;17.90;99.90;17.90;99314.00;;;;341112;28;95747;-91
2021/08/04 00:50:06;;;;;;;;;;;17.90;99.90;18.10;99315.00;;;;341926;28;83389;-90
2021/08/04 00:50:17;;;;;;;;;;;17.90;99.90;18.00;99319.00;;;;339792;28;96564;-91
2021/08/04 00:50:29;;;;;;;;;;;17.90;99.90;17.90;99315.00;;;;342073;28;83327;-90
2021/08/04 00:50:41;;;;;;;;;;;17.90;99.90;17.90;99317.00;;;;339797;28;96543;-90
2021/08/04 00:50:53;;;;;;;;;;;17.90;99.90;18.00;99319.00;;;;340501;28;83457;-90
2021/08/04 00:51:04;;;;;;;;;;;17.90;99.90;18.00;99319.00;;;;339867;28;97063;-89
2021/08/04 00:51:16;;;;;;;;;;;17.90;99.90;18.00;99315.00;;;;341859;28;83477;-90
2021/08/04 00:51:28;;;;;;;;;;;17.90;99.90;17.90;99320.00;;;;339947;28;96511;-89
2021/08/04 00:51:40;;;;;;;;;;;17.90;99.90;18.00;99326.00;;;;343319;28;82501;-90
2021/08/04 00:51:52;;;;;;;;;;;17.90;99.90;18.10;99307.00;;;;343902;28;98062;-91
2021/08/04 00:52:04;;;;;;;;;;;17.90;99.90;18.00;99308.00;;;;340271;28;83577;-90
2021/08/04 00:52:15;;;;;;;;;;;17.80;99.90;18.00;99311.00;;;;340064;28;95817;-89
2021/08/04 00:52:27;;;;;;;;;;;17.90;99.90;18.10;99310.00;;;;344594;28;83406;-91
2021/08/04 00:52:39;;;;;;;;;;;17.90;99.90;18.00;99322.00;;;;342501;28;95864;-90
2021/08/04 00:52:51;;;;;;;;;;;17.90;99.90;17.90;99304.00;;;;344637;28;83398;-89
2021/08/04 00:53:23;;;;;;;;;;;17.90;99.90;18.10;99321.00;;;;339908;28;94238;-90
2021/08/04 00:53:36;;;;;;;;;;;17.90;99.90;18.20;99312.00;;;;343340;28;83484;-90
2021/08/04 00:53:48;;;;;;;;;;;17.90;99.90;18.20;99319.00;;;;342557;28;96802;-89
2021/08/04 00:54:04;;;;;;;;;;;17.90;99.90;18.30;99315.00;;;;340519;28;83237;-90
2021/08/04 00:54:16;;;;;;;;;;;17.90;99.90;18.30;99312.00;;;;341162;28;96438;-89
2021/08/04 00:54:28;;;;;;;;;;;17.90;99.90;18.30;99307.00;;;;343357;28;83421;-89
2021/08/04 00:54:40;;;;;;;;;;;17.90;99.90;18.20;99315.00;;;;339854;28;96255;-90
2021/08/04 00:54:51;;;;;;;;;;;17.90;99.90;18.20;99314.00;;;;341985;28;82544;-90
2021/08/04 00:55:04;;;;;;;;;;;17.90;99.90;18.20;99309.00;;;;342275;28;96872;-92
2021/08/04 00:55:16;;;;;;;;;;;17.90;99.90;18.30;99299.00;;;;342596;28;82626;-90
2021/08/04 00:55:28;;;;;;;;;;;17.90;99.90;18.30;99294.00;;;;343850;28;96828;-90
2021/08/04 00:55:39;;;;;;;;;;;18.00;99.90;18.20;99307.00;;;;342067;28;83321;-90
2021/08/04 00:55:52;;;;;;;;;;;18.00;99.90;18.20;99297.00;;;;339767;28;96369;-89
2021/08/04 00:56:07;;;;;;;;;;;18.00;99.90;18.20;99304.00;;;;343333;28;82570;-89
2021/08/04 00:56:19;;;;;;;;;;;18.00;99.90;18.20;99306.00;;;;341190;28;97592;-90
2021/08/04 00:56:31;;;;;;;;;;;17.90;99.90;18.20;99292.00;;;;343358;28;83234;-90
2021/08/04 00:56:42;;;;;;;;;;;17.90;99.90;18.30;99296.00;;;;341129;28;96673;-91
2021/08/04 00:56:54;;;;;;;;;;;18.00;99.90;18.30;99306.00;;;;342034;28;82532;-90
2021/08/04 00:57:06;;;;;;;;;;;18.00;99.90;18.30;99297.00;;;;339806;28;96567;-90
2021/08/04 00:57:18;;;;;;;;;;;18.00;99.90;18.30;99306.00;;;;340660;28;83446;-90
2021/08/04 00:57:29;;;;;;;;;;;18.00;99.90;18.30;99296.00;;;;341180;28;96336;-90
2021/08/04 00:57:41;;;;;;;;;;;18.00;99.90;18.40;99298.00;;;;341992;28;83404;-89
2021/08/04 00:57:53;;;;;;;;;;;17.90;99.90;18.30;99306.00;;;;341105;28;95636;-89
2021/08/04 00:58:05;;;;;;;;;;;18.00;99.90;18.30;99304.00;;;;343313;28;83591;-90
2021/08/04 00:58:21;;;;;;;;;;;18.00;99.90;18.30;99291.00;;;;340597;28;98134;-90
2021/08/04 00:58:35;;;;;;;;;;;18.00;99.90;18.30;99299.00;;;;341866;28;83151;-90
2021/08/04 00:58:46;;;;;;;;;;;18.00;99.90;18.30;99304.00;;;;339667;28;96844;-90
2021/08/04 00:58:58;;;;;;;;;;;18.00;99.90;18.30;99300.00;;;;341606;28;83516;-90
2021/08/04 00:59:11;;;;;;;;;;;18.00;99.90;18.30;99308.00;;;;339870;28;95884;-90
2021/08/04 00:59:23;;;;;;;;;;;18.00;99.90;18.20;99300.00;;;;344673;28;82608;-90
2021/08/04 00:59:35;;;;;;;;;;;18.00;99.90;18.20;99309.00;;;;339912;28;94842;-90
2021/08/04 00:59:47;;;;;;;;;;;18.00;99.90;18.20;99299.00;;;;344658;28;82480;-91
2021/08/04 00:59:59;;;;;;;;;;;18.00;99.90;18.20;99297.00;;;;342525;28;93775;-90